sensor_id;sensor_type;location;lat;lon;timestamp;temperature;humidity
60868;DHT22;46702;48.370;10.794;2023-04-24T00:01:22;11.20;99.90
60868;DHT22;46702;48.370;10.794;2023-04-24T00:03:47;11.20;99.90
60868;DHT22;46702;48.370;10.794;2023-04-24T00:06:13;11.20;99.90
60868;DHT22;46702;48.370;10.794;2023-04-24T00:08:39;11.10;99.90
60868;DHT22;46702;48.370;10.794;2023-04-24T00:11:04;11.10;99.90
60868;DHT22;46702;48.370;10.794;2023-04-24T00:13:30;11.00;99.90
60868;DHT22;46702;48.370;10.794;2023-04-24T00:15:56;11.00;99.90
60868;DHT22;46702;48.370;10.794;2023-04-24T00:18:21;10.90;99.90
60868;DHT22;46702;48.370;10.794;2023-04-24T00:20:47;10.90;99.90
60868;DHT22;46702;48.370;10.794;2023-04-24T00:23:13;10.80;99.90
60868;DHT22;46702;48.370;10.794;2023-04-24T00:25:38;10.80;99.90
60868;DHT22;46702;48.370;10.794;2023-04-24T00:28:05;10.70;99.90
60868;DHT22;46702;48.370;10.794;2023-04-24T00:30:31;10.70;99.90
60868;DHT22;46702;48.370;10.794;2023-04-24T00:32:57;10.70;99.90
60868;DHT22;46702;48.370;10.794;2023-04-24T00:35:22;10.70;99.90
60868;DHT22;46702;48.370;10.794;2023-04-24T00:37:48;10.70;99.90
60868;DHT22;46702;48.370;10.794;2023-04-24T00:40:15;10.70;99.90
60868;DHT22;46702;48.370;10.794;2023-04-24T00:42:40;10.70;99.90
60868;DHT22;46702;48.370;10.794;2023-04-24T00:45:06;10.70;99.90
60868;DHT22;46702;48.370;10.794;2023-04-24T00:47:33;10.60;99.90
60868;DHT22;46702;48.370;10.794;2023-04-24T00:50:04;10.60;99.90
60868;DHT22;46702;48.370;10.794;2023-04-24T00:52:30;10.60;99.90
60868;DHT22;46702;48.370;10.794;2023-04-24T00:54:57;10.60;99.90
60868;DHT22;46702;48.370;10.794;2023-04-24T00:57:22;10.60;99.90
60868;DHT22;46702;48.370;10.794;2023-04-24T00:59:49;10.60;99.90
60868;DHT22;46702;48.370;10.794;2023-04-24T01:02:15;10.60;99.90
60868;DHT22;46702;48.370;10.794;2023-04-24T01:04:40;10.60;99.90
60868;DHT22;46702;48.370;10.794;2023-04-24T01:07:06;10.50;99.90
60868;DHT22;46702;48.370;10.794;2023-04-24T01:09:40;10.50;99.90
60868;DHT22;46702;48.370;10.794;2023-04-24T01:12:07;10.50;99.90
60868;DHT22;46702;48.370;10.794;2023-04-24T01:14:33;10.60;99.90
60868;DHT22;46702;48.370;10.794;2023-04-24T01:16:59;10.50;99.90
60868;DHT22;46702;48.370;10.794;2023-04-24T01:19:24;10.50;99.90
60868;DHT22;46702;48.370;10.794;2023-04-24T01:21:53;10.50;99.90
60868;DHT22;46702;48.370;10.794;2023-04-24T01:24:19;10.50;99.90
60868;DHT22;46702;48.370;10.794;2023-04-24T01:26:45;10.50;99.90
60868;DHT22;46702;48.370;10.794;2023-04-24T01:29:12;10.50;99.90
60868;DHT22;46702;48.370;10.794;2023-04-24T01:31:39;10.40;99.90
60868;DHT22;46702;48.370;10.794;2023-04-24T01:34:05;10.40;99.90
60868;DHT22;46702;48.370;10.794;2023-04-24T01:36:31;10.40;99.90
60868;DHT22;46702;48.370;10.794;2023-04-24T01:38:58;10.40;99.90
60868;DHT22;46702;48.370;10.794;2023-04-24T01:41:24;10.40;99.90
60868;DHT22;46702;48.370;10.794;2023-04-24T01:43:50;10.50;99.90
60868;DHT22;46702;48.370;10.794;2023-04-24T01:46:16;10.40;99.90
60868;DHT22;46702;48.370;10.794;2023-04-24T01:48:42;10.50;99.90
60868;DHT22;46702;48.370;10.794;2023-04-24T01:51:08;10.40;99.90
60868;DHT22;46702;48.370;10.794;2023-04-24T01:53:33;10.40;99.90
60868;DHT22;46702;48.370;10.794;2023-04-24T01:55:59;10.40;99.90
60868;DHT22;46702;48.370;10.794;2023-04-24T01:58:25;10.30;99.90
60868;DHT22;46702;48.370;10.794;2023-04-24T02:00:51;10.30;99.90
60868;DHT22;46702;48.370;10.794;2023-04-24T02:03:17;10.30;99.90
60868;DHT22;46702;48.370;10.794;2023-04-24T02:05:45;10.30;99.90
60868;DHT22;46702;48.370;10.794;2023-04-24T02:08:11;10.30;99.90
60868;DHT22;46702;48.370;10.794;2023-04-24T02:10:36;10.30;99.90
60868;DHT22;46702;48.370;10.794;2023-04-24T02:13:02;10.30;99.90
60868;DHT22;46702;48.370;10.794;2023-04-24T02:15:28;10.20;99.90
60868;DHT22;46702;48.370;10.794;2023-04-24T02:17:53;10.20;99.90
60868;DHT22;46702;48.370;10.794;2023-04-24T02:20:19;10.20;99.90
60868;DHT22;46702;48.370;10.794;2023-04-24T02:22:44;10.20;99.90
60868;DHT22;46702;48.370;10.794;2023-04-24T02:25:10;10.20;99.90
60868;DHT22;46702;48.370;10.794;2023-04-24T02:27:36;10.20;99.90
60868;DHT22;46702;48.370;10.794;2023-04-24T02:30:01;10.10;99.90
60868;DHT22;46702;48.370;10.794;2023-04-24T02:32:28;10.10;99.90
60868;DHT22;46702;48.370;10.794;2023-04-24T02:34:53;10.20;99.90
60868;DHT22;46702;48.370;10.794;2023-04-24T02:37:19;10.10;99.90
60868;DHT22;46702;48.370;10.794;2023-04-24T02:39:45;10.10;99.90
60868;DHT22;46702;48.370;10.794;2023-04-24T02:42:10;10.10;99.90
60868;DHT22;46702;48.370;10.794;2023-04-24T02:44:36;10.10;99.90
60868;DHT22;46702;48.370;10.794;2023-04-24T02:47:02;10.10;99.90
60868;DHT22;46702;48.370;10.794;2023-04-24T02:49:27;10.10;99.90
60868;DHT22;46702;48.370;10.794;2023-04-24T02:51:53;10.00;99.90
60868;DHT22;46702;48.370;10.794;2023-04-24T02:54:18;10.10;99.90
60868;DHT22;46702;48.370;10.794;2023-04-24T02:56:44;10.10;99.90
60868;DHT22;46702;48.370;10.794;2023-04-24T02:59:10;10.10;99.90
60868;DHT22;46702;48.370;10.794;2023-04-24T03:01:36;10.00;99.90
60868;DHT22;46702;48.370;10.794;2023-04-24T03:04:02;10.10;99.90
60868;DHT22;46702;48.370;10.794;2023-04-24T03:06:27;10.10;99.90
60868;DHT22;46702;48.370;10.794;2023-04-24T03:08:53;10.10;99.90
60868;DHT22;46702;48.370;10.794;2023-04-24T03:11:19;10.10;99.90
60868;DHT22;46702;48.370;10.794;2023-04-24T03:13:45;10.00;99.90
60868;DHT22;46702;48.370;10.794;2023-04-24T03:16:11;10.00;99.90
60868;DHT22;46702;48.370;10.794;2023-04-24T03:18:36;10.00;99.90
60868;DHT22;46702;48.370;10.794;2023-04-24T03:21:02;10.10;99.90
60868;DHT22;46702;48.370;10.794;2023-04-24T03:23:28;10.00;99.90
60868;DHT22;46702;48.370;10.794;2023-04-24T03:25:54;10.00;99.90
60868;DHT22;46702;48.370;10.794;2023-04-24T03:28:20;10.00;99.90
60868;DHT22;46702;48.370;10.794;2023-04-24T03:30:46;10.00;99.90
60868;DHT22;46702;48.370;10.794;2023-04-24T03:33:11;10.00;99.90
60868;DHT22;46702;48.370;10.794;2023-04-24T03:35:37;9.90;99.90
60868;DHT22;46702;48.370;10.794;2023-04-24T03:38:02;9.90;99.90
60868;DHT22;46702;48.370;10.794;2023-04-24T03:40:30;9.90;99.90
60868;DHT22;46702;48.370;10.794;2023-04-24T03:42:55;9.90;99.90
60868;DHT22;46702;48.370;10.794;2023-04-24T03:45:21;9.90;99.90
60868;DHT22;46702;48.370;10.794;2023-04-24T03:47:46;9.90;99.90
60868;DHT22;46702;48.370;10.794;2023-04-24T03:50:12;9.90;99.90
60868;DHT22;46702;48.370;10.794;2023-04-24T03:52:38;9.90;99.90
60868;DHT22;46702;48.370;10.794;2023-04-24T03:55:04;9.90;99.90
60868;DHT22;46702;48.370;10.794;2023-04-24T03:57:29;9.90;99.90
60868;DHT22;46702;48.370;10.794;2023-04-24T03:59:55;9.90;99.90
60868;DHT22;46702;48.370;10.794;2023-04-24T04:02:21;9.90;99.90
60868;DHT22;46702;48.370;10.794;2023-04-24T04:04:46;9.90;99.90
60868;DHT22;46702;48.370;10.794;2023-04-24T04:07:12;9.90;99.90
60868;DHT22;46702;48.370;10.794;2023-04-24T04:09:38;9.90;99.90
60868;DHT22;46702;48.370;10.794;2023-04-24T04:12:03;9.80;99.90
60868;DHT22;46702;48.370;10.794;2023-04-24T04:14:29;9.90;99.90
60868;DHT22;46702;48.370;10.794;2023-04-24T04:16:55;9.80;99.90
60868;DHT22;46702;48.370;10.794;2023-04-24T04:19:21;9.80;99.90
60868;DHT22;46702;48.370;10.794;2023-04-24T04:21:46;9.80;99.90
60868;DHT22;46702;48.370;10.794;2023-04-24T04:24:16;9.70;99.90
60868;DHT22;46702;48.370;10.794;2023-04-24T04:26:41;9.70;99.90
60868;DHT22;46702;48.370;10.794;2023-04-24T04:29:11;9.70;99.90
60868;DHT22;46702;48.370;10.794;2023-04-24T04:31:37;9.70;99.90
60868;DHT22;46702;48.370;10.794;2023-04-24T04:34:02;9.70;99.90
60868;DHT22;46702;48.370;10.794;2023-04-24T04:36:28;9.70;99.90
60868;DHT22;46702;48.370;10.794;2023-04-24T04:38:54;9.70;99.90
60868;DHT22;46702;48.370;10.794;2023-04-24T04:41:22;9.70;99.90
60868;DHT22;46702;48.370;10.794;2023-04-24T04:43:48;9.70;99.90
60868;DHT22;46702;48.370;10.794;2023-04-24T04:46:13;9.70;99.90
60868;DHT22;46702;48.370;10.794;2023-04-24T04:48:39;9.70;99.90
60868;DHT22;46702;48.370;10.794;2023-04-24T04:51:05;9.70;99.90
60868;DHT22;46702;48.370;10.794;2023-04-24T04:53:31;9.70;99.90
60868;DHT22;46702;48.370;10.794;2023-04-24T04:55:57;9.70;99.90
60868;DHT22;46702;48.370;10.794;2023-04-24T04:58:23;9.70;99.90
60868;DHT22;46702;48.370;10.794;2023-04-24T05:00:48;9.80;99.90
60868;DHT22;46702;48.370;10.794;2023-04-24T05:03:14;9.70;99.90
60868;DHT22;46702;48.370;10.794;2023-04-24T05:05:40;9.80;99.90
60868;DHT22;46702;48.370;10.794;2023-04-24T05:08:07;9.80;99.90
60868;DHT22;46702;48.370;10.794;2023-04-24T05:10:33;9.80;99.90
60868;DHT22;46702;48.370;10.794;2023-04-24T05:12:58;9.80;99.90
60868;DHT22;46702;48.370;10.794;2023-04-24T05:15:24;9.90;99.90
60868;DHT22;46702;48.370;10.794;2023-04-24T05:17:49;9.90;99.90
60868;DHT22;46702;48.370;10.794;2023-04-24T05:20:15;9.90;99.90
60868;DHT22;46702;48.370;10.794;2023-04-24T05:22:41;9.90;99.90
60868;DHT22;46702;48.370;10.794;2023-04-24T05:25:07;9.90;99.90
60868;DHT22;46702;48.370;10.794;2023-04-24T05:27:33;9.90;99.90
60868;DHT22;46702;48.370;10.794;2023-04-24T05:29:58;9.90;99.90
60868;DHT22;46702;48.370;10.794;2023-04-24T05:32:24;9.90;99.90
60868;DHT22;46702;48.370;10.794;2023-04-24T05:34:50;9.90;99.90
60868;DHT22;46702;48.370;10.794;2023-04-24T05:37:15;9.90;99.90
60868;DHT22;46702;48.370;10.794;2023-04-24T05:39:41;9.90;99.90
60868;DHT22;46702;48.370;10.794;2023-04-24T05:42:07;9.90;99.90
60868;DHT22;46702;48.370;10.794;2023-04-24T05:44:32;9.90;99.90
60868;DHT22;46702;48.370;10.794;2023-04-24T05:46:58;9.90;99.90
60868;DHT22;46702;48.370;10.794;2023-04-24T05:49:24;9.90;99.90
60868;DHT22;46702;48.370;10.794;2023-04-24T05:51:49;9.90;99.90
60868;DHT22;46702;48.370;10.794;2023-04-24T05:54:15;9.90;99.90
60868;DHT22;46702;48.370;10.794;2023-04-24T05:56:41;9.90;99.90
60868;DHT22;46702;48.370;10.794;2023-04-24T05:59:06;9.90;99.90
60868;DHT22;46702;48.370;10.794;2023-04-24T06:01:33;9.90;99.90
60868;DHT22;46702;48.370;10.794;2023-04-24T06:03:58;10.00;99.90
60868;DHT22;46702;48.370;10.794;2023-04-24T06:06:24;10.00;99.90
60868;DHT22;46702;48.370;10.794;2023-04-24T06:08:51;10.00;99.90
60868;DHT22;46702;48.370;10.794;2023-04-24T06:11:16;10.00;99.90
60868;DHT22;46702;48.370;10.794;2023-04-24T06:13:42;10.00;99.90
60868;DHT22;46702;48.370;10.794;2023-04-24T06:16:08;10.10;99.90
60868;DHT22;46702;48.370;10.794;2023-04-24T06:18:33;10.10;99.90
60868;DHT22;46702;48.370;10.794;2023-04-24T06:20:59;10.10;99.90
60868;DHT22;46702;48.370;10.794;2023-04-24T06:23:25;10.10;99.90
60868;DHT22;46702;48.370;10.794;2023-04-24T06:25:51;10.20;99.90
60868;DHT22;46702;48.370;10.794;2023-04-24T06:28:16;10.20;99.90
60868;DHT22;46702;48.370;10.794;2023-04-24T06:30:42;10.20;99.90
60868;DHT22;46702;48.370;10.794;2023-04-24T06:33:08;10.30;99.90
60868;DHT22;46702;48.370;10.794;2023-04-24T06:35:34;10.30;99.90
60868;DHT22;46702;48.370;10.794;2023-04-24T06:38:00;10.30;99.90
60868;DHT22;46702;48.370;10.794;2023-04-24T06:40:25;10.30;99.90
60868;DHT22;46702;48.370;10.794;2023-04-24T06:42:51;10.30;99.90
60868;DHT22;46702;48.370;10.794;2023-04-24T06:45:17;10.30;99.90
60868;DHT22;46702;48.370;10.794;2023-04-24T06:47:42;10.30;99.90
60868;DHT22;46702;48.370;10.794;2023-04-24T06:50:08;10.40;99.90
60868;DHT22;46702;48.370;10.794;2023-04-24T06:52:34;10.40;99.90
60868;DHT22;46702;48.370;10.794;2023-04-24T06:55:01;10.50;99.90
60868;DHT22;46702;48.370;10.794;2023-04-24T06:57:28;10.50;99.90
60868;DHT22;46702;48.370;10.794;2023-04-24T06:59:54;10.40;99.90
60868;DHT22;46702;48.370;10.794;2023-04-24T07:02:19;10.50;99.90
60868;DHT22;46702;48.370;10.794;2023-04-24T07:04:45;10.50;99.90
60868;DHT22;46702;48.370;10.794;2023-04-24T07:07:12;10.40;99.90
60868;DHT22;46702;48.370;10.794;2023-04-24T07:09:39;10.40;99.90
60868;DHT22;46702;48.370;10.794;2023-04-24T07:12:08;10.30;99.90
60868;DHT22;46702;48.370;10.794;2023-04-24T07:14:36;10.40;99.90
60868;DHT22;46702;48.370;10.794;2023-04-24T07:17:03;10.40;99.90
60868;DHT22;46702;48.370;10.794;2023-04-24T07:19:29;10.50;99.90
60868;DHT22;46702;48.370;10.794;2023-04-24T07:21:54;10.40;99.90
60868;DHT22;46702;48.370;10.794;2023-04-24T07:24:20;10.40;99.90
60868;DHT22;46702;48.370;10.794;2023-04-24T07:26:46;10.30;99.90
60868;DHT22;46702;48.370;10.794;2023-04-24T07:29:12;10.30;99.90
60868;DHT22;46702;48.370;10.794;2023-04-24T07:31:38;10.20;99.90
60868;DHT22;46702;48.370;10.794;2023-04-24T07:36:40;10.00;99.90
60868;DHT22;46702;48.370;10.794;2023-04-24T07:39:06;10.00;99.90
60868;DHT22;46702;48.370;10.794;2023-04-24T07:41:32;10.00;99.90
60868;DHT22;46702;48.370;10.794;2023-04-24T07:43:58;10.00;99.90
60868;DHT22;46702;48.370;10.794;2023-04-24T07:46:24;10.00;99.90
60868;DHT22;46702;48.370;10.794;2023-04-24T07:48:50;10.10;99.90
60868;DHT22;46702;48.370;10.794;2023-04-24T07:51:16;10.00;99.90
60868;DHT22;46702;48.370;10.794;2023-04-24T07:53:43;10.00;99.90
60868;DHT22;46702;48.370;10.794;2023-04-24T07:56:08;10.10;99.90
60868;DHT22;46702;48.370;10.794;2023-04-24T07:58:34;10.10;99.90
60868;DHT22;46702;48.370;10.794;2023-04-24T08:01:06;10.10;99.90
60868;DHT22;46702;48.370;10.794;2023-04-24T08:03:32;10.10;99.90
60868;DHT22;46702;48.370;10.794;2023-04-24T08:05:58;10.20;99.90
60868;DHT22;46702;48.370;10.794;2023-04-24T08:08:24;10.20;99.90
60868;DHT22;46702;48.370;10.794;2023-04-24T08:10:50;10.10;99.90
60868;DHT22;46702;48.370;10.794;2023-04-24T08:13:15;10.20;99.90
60868;DHT22;46702;48.370;10.794;2023-04-24T08:15:41;10.30;99.90
60868;DHT22;46702;48.370;10.794;2023-04-24T08:18:07;10.30;99.90
60868;DHT22;46702;48.370;10.794;2023-04-24T08:20:33;10.40;99.90
60868;DHT22;46702;48.370;10.794;2023-04-24T08:22:59;10.50;99.90
60868;DHT22;46702;48.370;10.794;2023-04-24T08:25:24;10.60;99.90
60868;DHT22;46702;48.370;10.794;2023-04-24T08:27:51;10.70;99.90
60868;DHT22;46702;48.370;10.794;2023-04-24T08:30:17;10.60;99.90
60868;DHT22;46702;48.370;10.794;2023-04-24T08:32:43;10.80;99.90
60868;DHT22;46702;48.370;10.794;2023-04-24T08:35:09;10.80;99.90
60868;DHT22;46702;48.370;10.794;2023-04-24T08:37:35;11.00;99.90
60868;DHT22;46702;48.370;10.794;2023-04-24T08:40:06;11.00;99.90
60868;DHT22;46702;48.370;10.794;2023-04-24T08:42:33;11.10;99.90
60868;DHT22;46702;48.370;10.794;2023-04-24T08:44:59;11.10;99.90
60868;DHT22;46702;48.370;10.794;2023-04-24T08:47:25;11.30;99.90
60868;DHT22;46702;48.370;10.794;2023-04-24T08:49:53;11.40;99.90
60868;DHT22;46702;48.370;10.794;2023-04-24T08:52:20;11.40;99.90
60868;DHT22;46702;48.370;10.794;2023-04-24T08:54:47;11.30;99.90
60868;DHT22;46702;48.370;10.794;2023-04-24T08:57:14;11.40;99.90
60868;DHT22;46702;48.370;10.794;2023-04-24T08:59:40;11.60;99.90
60868;DHT22;46702;48.370;10.794;2023-04-24T09:02:10;11.60;99.90
60868;DHT22;46702;48.370;10.794;2023-04-24T09:04:37;11.40;99.90
60868;DHT22;46702;48.370;10.794;2023-04-24T09:07:03;11.60;99.90
60868;DHT22;46702;48.370;10.794;2023-04-24T09:09:31;11.70;99.90
60868;DHT22;46702;48.370;10.794;2023-04-24T09:11:58;12.10;99.90
60868;DHT22;46702;48.370;10.794;2023-04-24T09:14:24;12.10;99.90
60868;DHT22;46702;48.370;10.794;2023-04-24T09:16:50;11.80;99.90
60868;DHT22;46702;48.370;10.794;2023-04-24T09:19:16;11.80;99.90
60868;DHT22;46702;48.370;10.794;2023-04-24T09:21:46;12.10;99.90
60868;DHT22;46702;48.370;10.794;2023-04-24T09:24:17;12.30;99.90
60868;DHT22;46702;48.370;10.794;2023-04-24T09:26:43;12.40;99.90
60868;DHT22;46702;48.370;10.794;2023-04-24T09:29:18;12.50;99.90
60868;DHT22;46702;48.370;10.794;2023-04-24T09:31:45;12.40;99.90
60868;DHT22;46702;48.370;10.794;2023-04-24T09:34:11;12.50;99.90
60868;DHT22;46702;48.370;10.794;2023-04-24T09:36:38;12.70;99.90
60868;DHT22;46702;48.370;10.794;2023-04-24T09:39:06;12.50;99.90
60868;DHT22;46702;48.370;10.794;2023-04-24T09:44:17;12.30;99.90
60868;DHT22;46702;48.370;10.794;2023-04-24T09:46:44;12.50;99.90
60868;DHT22;46702;48.370;10.794;2023-04-24T09:49:13;12.20;99.90
60868;DHT22;46702;48.370;10.794;2023-04-24T09:51:40;12.20;99.90
60868;DHT22;46702;48.370;10.794;2023-04-24T09:56:46;12.90;99.90
60868;DHT22;46702;48.370;10.794;2023-04-24T09:59:13;13.00;99.90
60868;DHT22;46702;48.370;10.794;2023-04-24T10:01:39;12.90;99.90
60868;DHT22;46702;48.370;10.794;2023-04-24T10:04:23;12.80;99.90
60868;DHT22;46702;48.370;10.794;2023-04-24T10:06:52;12.30;99.90
60868;DHT22;46702;48.370;10.794;2023-04-24T10:09:19;11.60;99.90
60868;DHT22;46702;48.370;10.794;2023-04-24T10:11:47;11.20;99.90
60868;DHT22;46702;48.370;10.794;2023-04-24T10:14:15;10.60;99.90
60868;DHT22;46702;48.370;10.794;2023-04-24T10:16:41;10.50;99.90
60868;DHT22;46702;48.370;10.794;2023-04-24T10:19:07;10.40;99.90
60868;DHT22;46702;48.370;10.794;2023-04-24T10:21:34;10.60;99.90
60868;DHT22;46702;48.370;10.794;2023-04-24T10:24:01;10.50;99.90
60868;DHT22;46702;48.370;10.794;2023-04-24T10:26:29;10.40;99.90
60868;DHT22;46702;48.370;10.794;2023-04-24T10:28:57;10.50;99.90
60868;DHT22;46702;48.370;10.794;2023-04-24T10:31:24;10.30;99.90
60868;DHT22;46702;48.370;10.794;2023-04-24T10:33:51;10.20;99.90
60868;DHT22;46702;48.370;10.794;2023-04-24T10:36:18;10.30;99.90
60868;DHT22;46702;48.370;10.794;2023-04-24T10:38:47;10.40;99.90
60868;DHT22;46702;48.370;10.794;2023-04-24T10:41:14;10.60;99.90
60868;DHT22;46702;48.370;10.794;2023-04-24T10:43:45;10.70;99.90
60868;DHT22;46702;48.370;10.794;2023-04-24T10:46:19;10.90;99.90
60868;DHT22;46702;48.370;10.794;2023-04-24T10:48:54;11.00;99.90
60868;DHT22;46702;48.370;10.794;2023-04-24T10:51:22;11.30;99.90
60868;DHT22;46702;48.370;10.794;2023-04-24T10:53:50;11.60;99.90
60868;DHT22;46702;48.370;10.794;2023-04-24T10:56:17;12.20;99.90
60868;DHT22;46702;48.370;10.794;2023-04-24T10:58:51;12.60;99.90
60868;DHT22;46702;48.370;10.794;2023-04-24T11:04:00;13.00;99.90
60868;DHT22;46702;48.370;10.794;2023-04-24T11:06:33;13.10;99.90
60868;DHT22;46702;48.370;10.794;2023-04-24T11:09:10;13.00;99.90
60868;DHT22;46702;48.370;10.794;2023-04-24T11:11:44;12.50;99.90
60868;DHT22;46702;48.370;10.794;2023-04-24T11:14:10;12.20;99.90
60868;DHT22;46702;48.370;10.794;2023-04-24T11:16:51;12.10;99.90
60868;DHT22;46702;48.370;10.794;2023-04-24T11:19:20;12.60;99.90
60868;DHT22;46702;48.370;10.794;2023-04-24T11:22:03;12.90;99.90
60868;DHT22;46702;48.370;10.794;2023-04-24T11:32:34;13.50;99.90
60868;DHT22;46702;48.370;10.794;2023-04-24T11:37:49;13.50;99.90
60868;DHT22;46702;48.370;10.794;2023-04-24T11:40:17;13.40;99.90
60868;DHT22;46702;48.370;10.794;2023-04-24T11:42:46;13.10;99.90
60868;DHT22;46702;48.370;10.794;2023-04-24T11:45:25;12.80;99.90
60868;DHT22;46702;48.370;10.794;2023-04-24T11:47:51;12.70;99.90
60868;DHT22;46702;48.370;10.794;2023-04-24T11:50:18;12.50;99.90
60868;DHT22;46702;48.370;10.794;2023-04-24T11:52:48;12.10;96.70
60868;DHT22;46702;48.370;10.794;2023-04-24T11:57:43;12.20;99.90
60868;DHT22;46702;48.370;10.794;2023-04-24T12:00:31;12.60;99.90
60868;DHT22;46702;48.370;10.794;2023-04-24T12:03:12;13.30;99.90
60868;DHT22;46702;48.370;10.794;2023-04-24T12:05:38;13.40;96.90
60868;DHT22;46702;48.370;10.794;2023-04-24T12:08:04;13.50;99.90
60868;DHT22;46702;48.370;10.794;2023-04-24T12:10:31;13.30;93.10
60868;DHT22;46702;48.370;10.794;2023-04-24T12:12:58;13.00;95.20
60868;DHT22;46702;48.370;10.794;2023-04-24T12:15:25;12.80;97.20
60868;DHT22;46702;48.370;10.794;2023-04-24T12:17:52;12.70;99.20
60868;DHT22;46702;48.370;10.794;2023-04-24T12:20:24;12.60;97.10
60868;DHT22;46702;48.370;10.794;2023-04-24T12:25:20;13.00;95.60
60868;DHT22;46702;48.370;10.794;2023-04-24T12:27:51;13.50;96.20
60868;DHT22;46702;48.370;10.794;2023-04-24T12:30:19;13.70;97.80
60868;DHT22;46702;48.370;10.794;2023-04-24T12:32:49;13.80;98.60
60868;DHT22;46702;48.370;10.794;2023-04-24T12:35:25;13.90;94.40
60868;DHT22;46702;48.370;10.794;2023-04-24T12:37:51;14.00;92.60
60868;DHT22;46702;48.370;10.794;2023-04-24T12:40:18;13.80;90.20
60868;DHT22;46702;48.370;10.794;2023-04-24T12:42:51;13.40;93.40
60868;DHT22;46702;48.370;10.794;2023-04-24T12:45:18;13.10;95.80
60868;DHT22;46702;48.370;10.794;2023-04-24T12:47:45;12.80;95.10
60868;DHT22;46702;48.370;10.794;2023-04-24T12:50:14;12.60;95.40
60868;DHT22;46702;48.370;10.794;2023-04-24T12:52:41;12.70;93.90
60868;DHT22;46702;48.370;10.794;2023-04-24T12:55:08;12.50;91.90
60868;DHT22;46702;48.370;10.794;2023-04-24T13:00:23;12.40;87.60
60868;DHT22;46702;48.370;10.794;2023-04-24T13:02:50;12.60;93.20
60868;DHT22;46702;48.370;10.794;2023-04-24T13:05:16;12.60;75.30
60868;DHT22;46702;48.370;10.794;2023-04-24T13:07:42;12.60;90.20
60868;DHT22;46702;48.370;10.794;2023-04-24T13:10:08;12.80;81.80
60868;DHT22;46702;48.370;10.794;2023-04-24T13:12:38;13.00;73.90
60868;DHT22;46702;48.370;10.794;2023-04-24T13:15:05;13.00;74.10
60868;DHT22;46702;48.370;10.794;2023-04-24T13:17:31;13.30;79.40
60868;DHT22;46702;48.370;10.794;2023-04-24T13:19:57;13.50;77.20
60868;DHT22;46702;48.370;10.794;2023-04-24T13:22:23;13.10;72.10
60868;DHT22;46702;48.370;10.794;2023-04-24T13:24:48;13.00;73.30
60868;DHT22;46702;48.370;10.794;2023-04-24T13:27:15;13.00;78.60
60868;DHT22;46702;48.370;10.794;2023-04-24T13:29:43;13.10;75.10
60868;DHT22;46702;48.370;10.794;2023-04-24T13:32:10;13.30;78.30
60868;DHT22;46702;48.370;10.794;2023-04-24T13:34:35;13.40;74.40
60868;DHT22;46702;48.370;10.794;2023-04-24T13:37:02;13.50;85.60
60868;DHT22;46702;48.370;10.794;2023-04-24T13:39:31;13.50;81.80
60868;DHT22;46702;48.370;10.794;2023-04-24T13:41:58;13.00;78.60
60868;DHT22;46702;48.370;10.794;2023-04-24T13:44:24;13.10;85.00
60868;DHT22;46702;48.370;10.794;2023-04-24T13:46:52;13.10;85.10
60868;DHT22;46702;48.370;10.794;2023-04-24T13:49:20;13.00;89.10
60868;DHT22;46702;48.370;10.794;2023-04-24T13:51:45;12.90;83.90
60868;DHT22;46702;48.370;10.794;2023-04-24T13:54:11;13.00;87.20
60868;DHT22;46702;48.370;10.794;2023-04-24T13:56:37;13.20;87.10
60868;DHT22;46702;48.370;10.794;2023-04-24T13:59:03;13.30;78.80
60868;DHT22;46702;48.370;10.794;2023-04-24T14:01:30;13.30;75.80
60868;DHT22;46702;48.370;10.794;2023-04-24T14:03:56;13.10;74.20
60868;DHT22;46702;48.370;10.794;2023-04-24T14:06:22;12.90;79.30
60868;DHT22;46702;48.370;10.794;2023-04-24T14:08:49;12.80;77.10
60868;DHT22;46702;48.370;10.794;2023-04-24T14:11:15;12.60;77.50
60868;DHT22;46702;48.370;10.794;2023-04-24T14:13:42;12.30;73.00
60868;DHT22;46702;48.370;10.794;2023-04-24T14:16:08;12.40;74.80
60868;DHT22;46702;48.370;10.794;2023-04-24T14:18:34;12.80;81.60
60868;DHT22;46702;48.370;10.794;2023-04-24T14:21:00;13.20;81.70
60868;DHT22;46702;48.370;10.794;2023-04-24T14:23:27;13.10;74.30
60868;DHT22;46702;48.370;10.794;2023-04-24T14:25:53;13.10;81.60
60868;DHT22;46702;48.370;10.794;2023-04-24T14:28:19;13.20;83.90
60868;DHT22;46702;48.370;10.794;2023-04-24T14:30:45;13.50;80.60
60868;DHT22;46702;48.370;10.794;2023-04-24T14:33:14;13.60;84.00
60868;DHT22;46702;48.370;10.794;2023-04-24T14:35:41;13.20;77.90
60868;DHT22;46702;48.370;10.794;2023-04-24T14:38:10;12.90;72.40
60868;DHT22;46702;48.370;10.794;2023-04-24T14:40:36;12.90;82.30
60868;DHT22;46702;48.370;10.794;2023-04-24T14:43:01;13.00;76.00
60868;DHT22;46702;48.370;10.794;2023-04-24T14:45:27;13.10;73.30
60868;DHT22;46702;48.370;10.794;2023-04-24T14:47:54;13.10;74.50
60868;DHT22;46702;48.370;10.794;2023-04-24T14:50:20;13.30;78.90
60868;DHT22;46702;48.370;10.794;2023-04-24T14:52:46;13.20;77.50
60868;DHT22;46702;48.370;10.794;2023-04-24T14:55:12;12.90;76.80
60868;DHT22;46702;48.370;10.794;2023-04-24T14:57:38;12.50;73.20
60868;DHT22;46702;48.370;10.794;2023-04-24T15:00:05;12.30;76.10
60868;DHT22;46702;48.370;10.794;2023-04-24T15:02:34;12.50;78.00
60868;DHT22;46702;48.370;10.794;2023-04-24T15:05:02;12.70;75.70
60868;DHT22;46702;48.370;10.794;2023-04-24T15:07:29;12.80;78.80
60868;DHT22;46702;48.370;10.794;2023-04-24T15:09:56;13.00;83.70
60868;DHT22;46702;48.370;10.794;2023-04-24T15:12:21;12.80;71.20
60868;DHT22;46702;48.370;10.794;2023-04-24T15:14:47;12.50;72.60
60868;DHT22;46702;48.370;10.794;2023-04-24T15:17:13;12.20;74.50
60868;DHT22;46702;48.370;10.794;2023-04-24T15:19:38;12.20;77.30
60868;DHT22;46702;48.370;10.794;2023-04-24T15:22:04;12.10;78.60
60868;DHT22;46702;48.370;10.794;2023-04-24T15:24:30;12.20;78.90
60868;DHT22;46702;48.370;10.794;2023-04-24T15:26:55;12.40;74.60
60868;DHT22;46702;48.370;10.794;2023-04-24T15:29:21;12.60;68.50
60868;DHT22;46702;48.370;10.794;2023-04-24T15:31:47;12.60;68.60
60868;DHT22;46702;48.370;10.794;2023-04-24T15:34:12;12.80;70.50
60868;DHT22;46702;48.370;10.794;2023-04-24T15:36:38;12.80;68.50
60868;DHT22;46702;48.370;10.794;2023-04-24T15:39:03;13.00;70.30
60868;DHT22;46702;48.370;10.794;2023-04-24T15:41:29;13.00;65.30
60868;DHT22;46702;48.370;10.794;2023-04-24T15:43:57;13.00;70.60